Time;durP1;ratioP1;P1;durP2;ratioP2;P2;SDS_P1;SDS_P2;PMS_P1;PMS_P2;Temp;Humidity;BMP_temperature;BMP_pressure;BME280_temperature;BME280_humidity;BME280_pressure;Samples;Min_cycle;Max_cycle;Signal;HPM_P1;HPM_P2
2023/04/20 00:02:04;;;;;;;1.15;0.75;;;;;;;-147.53;100.00;57128.34;10445316;28;20125;-78
2023/04/20 00:07:06;;;;;;;1.45;0.73;;;;;;;-147.53;100.00;57128.34;10426842;28;20049;-78
2023/04/20 00:12:08;;;;;;;2.05;0.73;;;;;;;-147.53;100.00;57128.34;10422376;28;20067;-78
2023/04/20 00:17:10;;;;;;;1.95;1.15;;;;;;;-147.53;100.00;57128.34;10405892;28;20497;-81
2023/04/20 00:22:12;;;;;;;3.53;1.35;;;;;;;-147.53;100.00;57128.34;10414720;28;20131;-80
2023/04/20 00:27:14;;;;;;;2.20;0.80;;;;;;;-147.53;100.00;57128.34;10424641;28;20049;-79
2023/04/20 00:32:16;;;;;;;1.48;0.80;;;;;;;-147.53;100.00;57128.34;10425365;28;20052;-78
2023/04/20 00:37:18;;;;;;;2.55;1.20;;;;;;;-147.53;100.00;57128.34;10424520;28;20473;-78
2023/04/20 00:42:20;;;;;;;4.78;0.68;;;;;;;-147.53;100.00;57128.34;10425135;28;20064;-78
2023/04/20 00:47:22;;;;;;;2.28;0.77;;;;;;;-147.53;100.00;57128.34;10443716;28;20059;-78
2023/04/20 00:52:24;;;;;;;1.00;0.73;;;;;;;-147.53;100.00;57128.34;10442537;28;20617;-80
2023/04/20 00:57:27;;;;;;;0.70;0.70;;;;;;;-147.53;100.00;57128.34;10425139;28;20136;-79
2023/04/20 01:02:28;;;;;;;1.60;0.75;;;;;;;-147.53;100.00;57128.34;10442491;28;20045;-80
2023/04/20 01:07:30;;;;;;;4.40;1.10;;;;;;;-147.53;100.00;57128.34;10443739;28;20078;-79
2023/04/20 01:12:32;;;;;;;2.88;1.00;;;;;;;-147.53;100.00;57128.34;10442355;28;20103;-79
2023/04/20 01:17:39;;;;;;;1.27;0.68;;;;;;;-147.53;100.00;57128.34;10423237;28;20059;-79
2023/04/20 01:22:46;;;;;;;0.68;0.55;;;;;;;-147.53;100.00;57128.34;10422437;28;20044;-78
2023/04/20 01:27:48;;;;;;;0.90;0.60;;;;;;;-147.53;100.00;57128.34;10406634;28;20444;-79
2023/04/20 01:32:50;;;;;;;6.00;0.90;;;;;;;-147.53;100.00;57128.34;10420206;28;20055;-79
2023/04/20 01:37:51;;;;;;;1.23;0.75;;;;;;;-147.53;100.00;57128.34;10422787;28;20060;-78
2023/04/20 01:42:53;;;;;;;1.08;0.93;;;;;;;-147.53;100.00;57128.34;10421850;28;20148;-79
2023/04/20 01:47:56;;;;;;;1.83;0.88;;;;;;;-147.53;100.00;57128.34;10417509;28;20045;-78
2023/04/20 01:53:00;;;;;;;0.63;0.57;;;;;;;-147.53;100.00;57128.34;10421808;28;20140;-78
2023/04/20 01:58:02;;;;;;;1.50;0.90;;;;;;;-147.53;100.00;57128.34;10421243;28;20144;-78
2023/04/20 02:03:04;;;;;;;2.55;1.05;;;;;;;-147.53;100.00;57128.34;10419613;28;20052;-79
2023/04/20 02:08:06;;;;;;;3.30;1.10;;;;;;;-147.53;100.00;57128.34;10403345;28;20044;-79
2023/04/20 02:13:08;;;;;;;2.17;0.90;;;;;;;-147.53;100.00;57128.34;10438003;28;20049;-78
2023/04/20 02:18:09;;;;;;;1.25;0.95;;;;;;;-147.53;100.00;57128.34;10421218;28;20057;-79
2023/04/20 02:23:11;;;;;;;1.20;0.85;;;;;;;-147.53;100.00;57128.34;10403288;28;20524;-78
2023/04/20 02:28:12;;;;;;;1.58;0.93;;;;;;;-147.53;100.00;57128.34;10404687;28;20075;-79
2023/04/20 02:33:14;;;;;;;1.45;0.40;;;;;;;-147.53;100.00;57128.34;10437518;28;20052;-78
2023/04/20 02:38:16;;;;;;;2.65;1.00;;;;;;;-147.53;100.00;57128.34;10419583;28;20052;-78
2023/04/20 02:43:18;;;;;;;0.45;0.45;;;;;;;-147.53;100.00;57128.34;10441973;28;20069;-79
2023/04/20 02:48:21;;;;;;;2.50;1.00;;;;;;;-147.53;100.00;57128.34;10419677;28;20460;-78
2023/04/20 02:53:22;;;;;;;1.70;0.88;;;;;;;-147.53;100.00;57128.34;10425718;28;20117;-78
2023/04/20 02:58:33;;;;;;;5.38;0.93;;;;;;;-147.53;100.00;57128.34;10426591;28;20643;-78
2023/04/20 03:03:46;;;;;;;0.98;0.68;;;;;;;-147.53;100.00;57128.34;10411110;28;20059;-78
2023/04/20 03:08:48;;;;;;;0.95;0.80;;;;;;;-147.53;100.00;57128.34;10426285;28;20077;-78
2023/04/20 03:14:20;;;;;;;1.00;0.63;;;;;;;-147.53;100.00;57128.34;10424033;28;20072;-82
2023/04/20 03:19:23;;;;;;;6.13;0.95;;;;;;;-147.53;100.00;57128.34;10425037;28;20051;-80
2023/04/20 03:24:25;;;;;;;5.18;0.85;;;;;;;-147.53;100.00;57128.34;10426542;28;20049;-79
2023/04/20 03:29:29;;;;;;;2.53;1.10;;;;;;;-147.53;100.00;57128.34;10407902;28;20793;-78
2023/04/20 03:34:31;;;;;;;1.08;0.52;;;;;;;-147.53;100.00;57128.34;10399768;28;20048;-79
2023/04/20 03:39:33;;;;;;;0.38;0.32;;;;;;;-147.53;100.00;57128.34;10424940;28;20565;-78
2023/04/20 03:44:35;;;;;;;1.58;0.68;;;;;;;-147.53;100.00;57128.34;10424670;28;20519;-79
2023/04/20 03:49:38;;;;;;;6.22;1.42;;;;;;;-147.53;100.00;57128.34;10409482;28;20041;-79
2023/04/20 03:54:40;;;;;;;2.83;0.95;;;;;;;-147.53;100.00;57128.34;10422096;28;20052;-78
2023/04/20 03:59:43;;;;;;;1.00;0.40;;;;;;;-147.53;100.00;57128.34;10406618;28;20575;-79
2023/04/20 04:04:49;;;;;;;1.85;0.55;;;;;;;-147.53;100.00;57128.34;10422233;28;20068;-79
2023/04/20 04:09:51;;;;;;;2.03;1.00;;;;;;;-147.53;100.00;57128.34;10422527;28;20513;-78
2023/04/20 04:14:53;;;;;;;2.17;1.15;;;;;;;-147.53;100.00;57128.34;10423765;28;20102;-78
2023/04/20 04:20:00;;;;;;;0.95;0.50;;;;;;;-147.53;100.00;57128.34;10410412;28;20055;-79
2023/04/20 04:25:03;;;;;;;1.50;0.98;;;;;;;-147.53;100.00;57128.34;10444192;28;20049;-80
2023/04/20 04:30:08;;;;;;;0.47;0.38;;;;;;;-147.53;100.00;57128.34;10428842;28;20049;-80
2023/04/20 04:35:12;;;;;;;1.08;0.60;;;;;;;-147.53;100.00;57128.34;10429641;28;20390;-81
2023/04/20 04:40:18;;;;;;;3.67;1.10;;;;;;;-147.53;100.00;57128.34;10415242;28;20099;-81
2023/04/20 04:45:24;;;;;;;2.17;1.00;;;;;;;-147.53;100.00;57128.34;10416764;28;20711;-80
2023/04/20 04:50:27;;;;;;;3.65;0.88;;;;;;;-147.53;100.00;57128.34;10408343;28;20513;-85
2023/04/20 04:55:29;;;;;;;3.03;0.60;;;;;;;-147.53;100.00;57128.34;10435182;28;20045;-84
2023/04/20 05:00:30;;;;;;;0.20;0.20;;;;;;;-147.53;100.00;57128.34;10435047;28;20049;-84
2023/04/20 05:05:32;;;;;;;0.63;0.45;;;;;;;-147.53;100.00;57128.34;10440803;28;20063;-84
2023/04/20 05:10:34;;;;;;;0.50;0.50;;;;;;;-147.53;100.00;57128.34;10461371;28;20064;-84
2023/04/20 05:15:36;;;;;;;0.47;0.47;;;;;;;-147.53;100.00;57128.34;10444603;28;20057;-86
2023/04/20 05:20:44;;;;;;;0.77;0.65;;;;;;;-147.53;100.00;57128.34;10440506;28;20524;-85
2023/04/20 05:26:04;;;;;;;1.15;0.93;;;;;;;-147.53;100.00;57128.34;10432425;28;20053;-84
2023/04/20 05:31:06;;;;;;;0.68;0.60;;;;;;;-147.53;100.00;57128.34;10442666;28;20080;-84
2023/04/20 05:36:09;;;;;;;2.40;1.63;;;;;;;-147.53;100.00;57128.34;10440322;28;20049;-85
2023/04/20 05:41:11;;;;;;;1.95;1.20;;;;;;;-147.53;100.00;57128.34;10443672;28;20045;-84
2023/04/20 05:46:13;;;;;;;1.70;0.80;;;;;;;-147.53;100.00;57128.34;10446092;28;20080;-86
2023/04/20 05:51:15;;;;;;;2.53;1.52;;;;;;;-147.53;100.00;57128.34;10407118;28;20704;-85
2023/04/20 05:56:42;;;;;;;1.20;0.68;;;;;;;-147.53;100.00;57128.34;10428154;28;20106;-84
2023/04/20 06:01:56;;;;;;;0.93;0.70;;;;;;;-147.53;100.00;57128.34;10432636;28;20049;-84
2023/04/20 06:06:59;;;;;;;1.58;1.38;;;;;;;-147.53;100.00;57128.34;10437091;28;20664;-83
2023/04/20 06:12:01;;;;;;;3.28;0.73;;;;;;;-147.53;100.00;57128.34;10438846;28;20557;-82
2023/04/20 06:17:03;;;;;;;0.98;0.60;;;;;;;-147.53;100.00;57128.34;10446131;28;20041;-81
2023/04/20 06:22:07;;;;;;;1.38;1.02;;;;;;;-147.53;100.00;57128.34;10470083;28;20045;-82
2023/04/20 06:27:08;;;;;;;15.70;1.50;;;;;;;-147.53;100.00;57128.34;10451639;28;20056;-82
2023/04/20 06:32:10;;;;;;;3.95;0.75;;;;;;;-147.53;100.00;57128.34;10470173;28;20124;-81
2023/04/20 06:37:12;;;;;;;0.60;0.60;;;;;;;-147.53;100.00;57128.34;10453627;28;20475;-81
2023/04/20 06:42:14;;;;;;;0.82;0.65;;;;;;;-147.53;100.00;57128.34;10450879;28;20048;-80
2023/04/20 06:47:17;;;;;;;1.23;0.77;;;;;;;-147.53;100.00;57128.34;10452970;28;20116;-81
2023/04/20 06:52:19;;;;;;;1.30;0.80;;;;;;;-147.53;100.00;57128.34;10460763;28;20040;-81
2023/04/20 06:57:21;;;;;;;1.27;0.68;;;;;;;-147.53;100.00;57128.34;10446433;28;20060;-81
2023/04/20 07:02:23;;;;;;;6.90;1.20;;;;;;;-147.53;100.00;57128.34;10445000;28;20041;-81
2023/04/20 07:07:25;;;;;;;0.98;0.60;;;;;;;-147.53;100.00;57128.34;10450350;28;20116;-81
2023/04/20 07:12:27;;;;;;;1.05;0.75;;;;;;;-147.53;100.00;57128.34;10444141;28;20045;-82
2023/04/20 07:17:28;;;;;;;3.55;2.28;;;;;;;-147.53;100.00;57128.34;10460859;28;20056;-80
2023/04/20 07:22:31;;;;;;;2.25;1.10;;;;;;;-147.53;100.00;57128.34;10401621;28;20049;-81
2023/04/20 07:27:38;;;;;;;4.30;1.30;;;;;;;-147.53;100.00;57128.34;10427801;28;20047;-81
2023/04/20 07:32:40;;;;;;;0.93;0.80;;;;;;;-147.53;100.00;57128.34;10452366;28;20056;-81
2023/04/20 07:37:42;;;;;;;2.78;1.45;;;;;;;-147.53;100.00;57128.34;10457348;28;20045;-80
2023/04/20 07:42:44;;;;;;;2.88;1.35;;;;;;;-147.53;100.00;57128.34;10445595;28;20037;-80
2023/04/20 07:47:50;;;;;;;2.65;1.38;;;;;;;-147.53;100.00;57128.34;10454032;28;20057;-81
2023/04/20 07:52:52;;;;;;;2.08;0.98;;;;;;;-147.53;100.00;57128.34;10427721;28;20897;-81
2023/04/20 07:57:54;;;;;;;2.50;1.38;;;;;;;-147.53;100.00;57128.34;10448276;28;20049;-81
2023/04/20 08:02:56;;;;;;;4.28;1.50;;;;;;;-147.53;100.00;57128.34;10436114;28;20044;-80
2023/04/20 08:07:58;;;;;;;3.25;1.45;;;;;;;-147.53;100.00;57128.34;10433731;28;20048;-80
2023/04/20 08:13:00;;;;;;;1.77;0.88;;;;;;;-147.53;100.00;57128.34;10412988;28;20071;-80
2023/04/20 08:18:02;;;;;;;1.77;1.20;;;;;;;-147.53;100.00;57128.34;10432560;28;20585;-80
2023/04/20 08:23:04;;;;;;;1.88;0.90;;;;;;;-147.53;100.00;57128.34;10422956;28;20060;-80
2023/04/20 08:28:06;;;;;;;1.48;1.20;;;;;;;-147.53;100.00;57128.34;10434863;28;20777;-80
2023/04/20 08:33:16;;;;;;;9.45;1.33;;;;;;;-147.53;100.00;57128.34;10432213;28;20037;-81
2023/04/20 08:38:20;;;;;;;2.70;1.73;;;;;;;-147.53;100.00;57128.34;10436373;28;20059;-81
2023/04/20 08:43:35;;;;;;;4.28;2.30;;;;;;;-147.53;100.00;57128.34;10453843;28;20051;-80
2023/04/20 08:48:37;;;;;;;2.40;1.25;;;;;;;-147.53;100.00;57128.34;10455877;28;20053;-80
2023/04/20 08:53:38;;;;;;;3.22;1.50;;;;;;;-147.53;100.00;57128.34;10424274;28;20060;-80
2023/04/20 08:58:41;;;;;;;3.78;1.75;;;;;;;-147.53;100.00;57128.34;10435529;28;20114;-82
2023/04/20 09:03:43;;;;;;;2.45;1.33;;;;;;;-147.53;100.00;57128.34;10434006;28;20048;-80
2023/04/20 09:08:45;;;;;;;6.80;2.60;;;;;;;-147.53;100.00;57128.34;10429269;28;20543;-81
2023/04/20 09:14:01;;;;;;;3.92;1.83;;;;;;;-147.53;100.00;57128.34;10441493;28;20064;-80
2023/04/20 09:19:02;;;;;;;2.50;1.63;;;;;;;-147.53;100.00;57128.34;10448879;28;20497;-80
2023/04/20 09:24:08;;;;;;;2.65;1.65;;;;;;;-147.53;100.00;57128.34;10451585;28;20059;-80
2023/04/20 09:29:20;;;;;;;5.25;2.60;;;;;;;-147.53;100.00;57128.34;10419187;28;20045;-79
2023/04/20 09:34:22;;;;;;;6.20;2.20;;;;;;;-147.53;100.00;57128.34;10437749;28;20125;-79
2023/04/20 09:39:25;;;;;;;4.70;2.33;;;;;;;-147.53;100.00;57128.34;10438588;28;20071;-79
2023/04/20 09:44:27;;;;;;;3.47;1.88;;;;;;;-147.53;100.00;57128.34;10438889;28;20056;-79
2023/04/20 09:49:29;;;;;;;4.35;1.98;;;;;;;-147.53;100.00;57128.34;10455485;28;20573;-79
2023/04/20 09:54:31;;;;;;;3.70;2.05;;;;;;;-147.53;100.00;57128.34;10431642;28;20041;-80
2023/04/20 09:59:33;;;;;;;3.05;1.80;;;;;;;-147.53;100.00;57128.34;10444467;28;20045;-81
2023/04/20 10:04:35;;;;;;;5.00;2.60;;;;;;;-147.53;100.00;57128.34;10428985;28;20080;-79
2023/04/20 10:09:37;;;;;;;2.30;1.50;;;;;;;-147.53;100.00;57128.34;10428168;28;20068;-80
2023/04/20 10:14:38;;;;;;;5.90;2.60;;;;;;;-147.53;100.00;57128.34;10431207;28;20061;-80
2023/04/20 10:19:44;;;;;;;2.60;1.77;;;;;;;-147.53;100.00;57128.34;10435690;28;20057;-80
2023/04/20 10:24:45;;;;;;;5.82;1.77;;;;;;;-147.53;100.00;57128.34;10446562;28;20432;-81
2023/04/20 10:29:47;;;;;;;5.38;2.47;;;;;;;-147.53;100.00;57128.34;10419460;28;20057;-80
2023/04/20 10:35:01;;;;;;;4.93;2.60;;;;;;;-147.53;100.00;57128.34;10434863;28;20064;-81
2023/04/20 10:40:06;;;;;;;5.80;3.17;;;;;;;-147.53;100.00;57128.34;10435641;28;20091;-81
2023/04/20 10:45:10;;;;;;;4.03;2.00;;;;;;;-147.53;100.00;57128.34;10441133;28;20079;-80
2023/04/20 10:50:15;;;;;;;4.07;1.98;;;;;;;-147.53;100.00;57128.34;10444496;28;20116;-80
2023/04/20 10:55:19;;;;;;;4.75;2.05;;;;;;;-147.53;100.00;57128.34;10442562;28;20476;-81
2023/04/20 11:00:24;;;;;;;4.57;1.75;;;;;;;-147.53;100.00;57128.34;10429469;28;20080;-81
2023/04/20 11:05:26;;;;;;;8.40;3.22;;;;;;;-147.53;100.00;57128.34;10449055;28;20069;-81
2023/04/20 11:10:40;;;;;;;3.92;1.85;;;;;;;-147.53;100.00;57128.34;10449514;28;20045;-80
2023/04/20 11:15:42;;;;;;;6.68;2.42;;;;;;;-147.53;100.00;57128.34;10450622;28;20049;-80
2023/04/20 11:20:52;;;;;;;4.60;2.22;;;;;;;-147.53;100.00;57128.34;10432560;28;20576;-81
2023/04/20 11:25:55;;;;;;;7.38;2.03;;;;;;;-147.53;100.00;57128.34;10449606;28;20057;-80
2023/04/20 11:30:57;;;;;;;5.05;2.20;;;;;;;-147.53;100.00;57128.34;10433537;28;20049;-81
2023/04/20 11:36:01;;;;;;;6.28;2.58;;;;;;;-147.53;100.00;57128.34;10451572;28;20071;-81
2023/04/20 11:41:06;;;;;;;4.07;2.05;;;;;;;-147.53;100.00;57128.34;10449387;28;20417;-81
2023/04/20 11:46:19;;;;;;;3.33;1.67;;;;;;;-147.53;100.00;57128.34;10448531;28;20072;-80
2023/04/20 11:51:21;;;;;;;6.10;2.25;;;;;;;-147.53;100.00;57128.34;10447657;28;20056;-81
2023/04/20 11:56:22;;;;;;;6.35;2.65;;;;;;;-147.53;100.00;57128.34;10448609;28;20052;-80
2023/04/20 12:01:24;;;;;;;4.75;2.17;;;;;;;-147.53;100.00;57128.34;10448538;28;20049;-80
2023/04/20 12:06:27;;;;;;;4.05;1.95;;;;;;;-147.53;100.00;57128.34;10449884;28;20052;-80
2023/04/20 12:11:29;;;;;;;5.47;2.47;;;;;;;-147.53;100.00;57128.34;10446828;28;20057;-80
2023/04/20 12:16:31;;;;;;;6.45;2.17;;;;;;;-147.53;100.00;57128.34;10443705;28;20060;-80
2023/04/20 12:21:33;;;;;;;6.75;2.33;;;;;;;-147.53;100.00;57128.34;10443863;28;20409;-80
2023/04/20 12:26:35;;;;;;;6.00;2.63;;;;;;;-147.53;100.00;57128.34;10448222;28;20057;-81
2023/04/20 12:31:39;;;;;;;7.93;2.63;;;;;;;-147.53;100.00;57128.34;10465319;28;20067;-81
2023/04/20 12:36:41;;;;;;;5.80;2.38;;;;;;;-147.53;100.00;57128.34;10463773;28;20056;-81
2023/04/20 12:41:42;;;;;;;5.65;2.40;;;;;;;-147.53;100.00;57128.34;10445217;28;20091;-81
2023/04/20 12:46:44;;;;;;;6.13;2.28;;;;;;;-147.53;100.00;57128.34;10441893;28;20056;-81
2023/04/20 12:51:46;;;;;;;6.13;2.38;;;;;;;-147.53;100.00;57128.34;10427126;28;20037;-81
2023/04/20 12:56:48;;;;;;;6.80;2.35;;;;;;;-147.53;100.00;57128.34;10427083;28;20056;-80
2023/04/20 13:01:50;;;;;;;4.50;2.50;;;;;;;-147.53;100.00;57128.34;10447952;28;20052;-80
2023/04/20 13:06:52;;;;;;;11.65;3.13;;;;;;;-147.53;100.00;57128.34;10445491;28;20057;-81
2023/04/20 13:11:54;;;;;;;6.68;2.58;;;;;;;-147.53;100.00;57128.34;10447117;28;20128;-80
2023/04/20 13:16:56;;;;;;;4.10;2.13;;;;;;;-147.53;100.00;57128.34;10442841;28;20071;-82
2023/04/20 13:22:02;;;;;;;6.18;2.45;;;;;;;-147.53;100.00;57128.34;10433187;28;20048;-82
2023/04/20 13:27:04;;;;;;;5.28;1.73;;;;;;;-147.53;100.00;57128.34;10429499;28;20059;-80
2023/04/20 13:32:06;;;;;;;6.10;2.03;;;;;;;-147.53;100.00;57128.34;10438092;28;20429;-81
2023/04/20 13:37:07;;;;;;;5.38;2.00;;;;;;;-147.53;100.00;57128.34;10440650;28;20136;-80
2023/04/20 13:42:09;;;;;;;5.03;1.80;;;;;;;-147.53;100.00;57128.34;10459506;28;20159;-80
2023/04/20 13:47:11;;;;;;;5.07;2.17;;;;;;;-147.53;100.00;57128.34;10436085;28;20049;-81
2023/04/20 13:52:13;;;;;;;3.92;1.85;;;;;;;-147.53;100.00;57128.34;10420187;28;20041;-81
2023/04/20 13:57:15;;;;;;;3.97;2.03;;;;;;;-147.53;100.00;57128.34;10427207;28;20136;-80
2023/04/20 14:02:16;;;;;;;4.28;2.03;;;;;;;-147.53;100.00;57128.34;10435023;28;20164;-80
2023/04/20 14:07:18;;;;;;;8.07;2.83;;;;;;;-147.53;100.00;57128.34;10423665;28;20053;-80
2023/04/20 14:12:20;;;;;;;7.20;2.22;;;;;;;-147.53;100.00;57128.34;10446288;28;20152;-80
2023/04/20 14:17:21;;;;;;;3.83;1.80;;;;;;;-147.53;100.00;57128.34;10449649;28;20041;-81
2023/04/20 14:22:23;;;;;;;5.55;2.30;;;;;;;-147.53;100.00;57128.34;10425740;28;20103;-80
2023/04/20 14:27:25;;;;;;;5.95;2.63;;;;;;;-147.53;100.00;57128.34;10432899;28;20117;-80
2023/04/20 14:32:29;;;;;;;4.53;2.17;;;;;;;-147.53;100.00;57128.34;10450557;28;20103;-80
2023/04/20 14:37:32;;;;;;;10.65;2.05;;;;;;;-147.53;100.00;57128.34;10422172;28;20053;-81
2023/04/20 14:42:37;;;;;;;3.03;1.52;;;;;;;-147.53;100.00;57128.34;10443007;28;20049;-81
2023/04/20 14:47:42;;;;;;;3.53;1.98;;;;;;;-147.53;100.00;57128.34;10440869;28;20560;-80
2023/04/20 14:52:43;;;;;;;2.85;1.60;;;;;;;-147.53;100.00;57128.34;10456354;28;20045;-81
2023/04/20 14:57:45;;;;;;;3.47;1.88;;;;;;;-147.53;100.00;57128.34;10439967;28;20045;-80
2023/04/20 15:02:46;;;;;;;2.72;1.63;;;;;;;-147.53;100.00;57128.34;10453530;28;20123;-82
2023/04/20 15:07:49;;;;;;;4.25;2.15;;;;;;;-147.53;100.00;57128.34;10420648;28;20052;-82
2023/04/20 15:12:51;;;;;;;6.13;2.45;;;;;;;-147.53;100.00;57128.34;10439859;28;20044;-81
2023/04/20 15:17:53;;;;;;;3.72;2.10;;;;;;;-147.53;100.00;57128.34;10440456;28;20055;-81
2023/04/20 15:22:54;;;;;;;5.45;2.22;;;;;;;-147.53;100.00;57128.34;10451726;28;20064;-80
2023/04/20 15:27:56;;;;;;;2.38;1.40;;;;;;;-147.53;100.00;57128.34;10450641;28;20045;-79
2023/04/20 15:33:02;;;;;;;6.72;2.60;;;;;;;-147.53;100.00;57128.34;10419782;28;20136;-83
2023/04/20 15:38:56;;;;;;;3.67;1.63;;;;;;;-147.53;100.00;57128.34;10416646;28;20045;-83
2023/04/20 15:44:13;;;;;;;1.73;1.17;;;;;;;-147.53;100.00;57128.34;10425688;28;20455;-81
2023/04/20 15:49:19;;;;;;;3.38;1.77;;;;;;;-147.53;100.00;57128.34;10437362;28;20424;-82
2023/04/20 15:54:27;;;;;;;6.22;2.05;;;;;;;-147.53;100.00;57128.34;10442261;28;20051;-82
2023/04/20 15:59:36;;;;;;;3.80;1.92;;;;;;;-147.53;100.00;57128.34;10415725;28;20499;-81
2023/04/20 16:04:50;;;;;;;4.32;2.08;;;;;;;-147.53;100.00;57128.34;10459077;28;20049;-81
2023/04/20 16:09:51;;;;;;;4.88;2.15;;;;;;;-147.53;100.00;57128.34;10450319;28;20056;-82
2023/04/20 16:14:53;;;;;;;2.65;1.17;;;;;;;-147.53;100.00;57128.34;10446885;28;20057;-81
2023/04/20 16:19:55;;;;;;;2.58;1.42;;;;;;;-147.53;100.00;57128.34;10462701;28;20048;-80
2023/04/20 16:24:57;;;;;;;3.50;1.75;;;;;;;-147.53;100.00;57128.34;10466404;28;20136;-81
2023/04/20 16:30:01;;;;;;;2.97;1.58;;;;;;;-147.53;100.00;57128.34;10426897;28;20080;-82
2023/04/20 16:35:04;;;;;;;4.78;2.08;;;;;;;-147.53;100.00;57128.34;10439743;28;20136;-82
2023/04/20 16:40:08;;;;;;;4.95;2.08;;;;;;;-147.53;100.00;57128.34;10411427;28;20152;-82
2023/04/20 16:45:15;;;;;;;6.97;2.30;;;;;;;-147.53;100.00;57128.34;10444249;28;20053;-82
2023/04/20 16:50:18;;;;;;;5.03;2.00;;;;;;;-147.53;100.00;57128.34;10443880;28;20079;-82
2023/04/20 16:55:20;;;;;;;4.78;2.35;;;;;;;-147.53;100.00;57128.34;10455597;28;20053;-81
2023/04/20 17:00:28;;;;;;;8.10;3.30;;;;;;;-147.53;100.00;57128.34;10424853;28;20436;-82
2023/04/20 17:05:31;;;;;;;5.63;2.50;;;;;;;-147.53;100.00;57128.34;10438231;28;20727;-82
2023/04/20 17:10:38;;;;;;;9.05;3.15;;;;;;;-147.53;100.00;57128.34;10451806;28;20053;-82
2023/04/20 17:15:43;;;;;;;7.63;2.65;;;;;;;-147.53;100.00;57128.34;10431521;28;20484;-82
2023/04/20 17:20:46;;;;;;;5.53;2.20;;;;;;;-147.53;100.00;57128.34;10430103;28;20954;-82
2023/04/20 17:25:48;;;;;;;4.43;1.85;;;;;;;-147.53;100.00;57128.34;10441841;28;20079;-82
2023/04/20 17:30:50;;;;;;;5.90;2.50;;;;;;;-147.53;100.00;57128.34;10437962;28;20120;-82
2023/04/20 17:35:55;;;;;;;4.78;2.22;;;;;;;-147.53;100.00;57128.34;10438581;28;20052;-82
2023/04/20 17:41:11;;;;;;;6.18;2.45;;;;;;;-147.53;100.00;57128.34;10415452;28;20716;-82
2023/04/20 17:46:19;;;;;;;5.13;2.20;;;;;;;-147.53;100.00;57128.34;10428783;28;20059;-82
2023/04/20 17:51:32;;;;;;;3.77;2.17;;;;;;;-147.53;100.00;57128.34;10431470;28;20063;-82
2023/04/20 17:56:38;;;;;;;10.25;3.17;;;;;;;-147.53;100.00;57128.34;10445391;28;20475;-81
2023/04/20 18:01:48;;;;;;;4.72;2.20;;;;;;;-147.53;100.00;57128.34;10443360;28;20072;-81
2023/04/20 18:06:56;;;;;;;4.88;2.22;;;;;;;-147.53;100.00;57128.34;10428518;28;20053;-81
2023/04/20 18:11:58;;;;;;;6.93;2.70;;;;;;;-147.53;100.00;57128.34;10412211;28;20088;-81
2023/04/20 18:17:03;;;;;;;6.13;2.55;;;;;;;-147.53;100.00;57128.34;10451724;28;20053;-81
2023/04/20 18:22:06;;;;;;;5.75;2.45;;;;;;;-147.53;100.00;57128.34;10429655;28;20048;-81
2023/04/20 18:27:09;;;;;;;4.35;2.22;;;;;;;-147.53;100.00;57128.34;10443996;28;20057;-80
2023/04/20 18:32:15;;;;;;;6.07;3.13;;;;;;;-147.53;100.00;57128.34;10440437;28;20045;-81
2023/04/20 18:37:17;;;;;;;5.82;2.30;;;;;;;-147.53;100.00;57128.34;10416355;28;20052;-81
2023/04/20 18:42:25;;;;;;;4.88;2.30;;;;;;;-147.53;100.00;57128.34;10409688;28;20056;-81
2023/04/20 18:47:32;;;;;;;5.35;2.28;;;;;;;-147.53;100.00;57128.34;10432409;28;20528;-81
2023/04/20 18:52:35;;;;;;;7.13;2.70;;;;;;;-147.53;100.00;57128.34;10429739;28;20056;-80
2023/04/20 18:57:43;;;;;;;13.75;7.78;;;;;;;-147.53;100.00;57128.34;10431782;28;20049;-81
2023/04/20 19:02:47;;;;;;;7.55;3.33;;;;;;;-147.53;100.00;57128.34;10407029;28;20110;-81
2023/04/20 19:07:56;;;;;;;6.63;3.58;;;;;;;-147.53;100.00;57128.34;10450901;28;20143;-81
2023/04/20 19:13:01;;;;;;;6.88;2.90;;;;;;;-147.53;100.00;57128.34;10448364;28;20060;-81
2023/04/20 19:18:09;;;;;;;9.10;3.20;;;;;;;-147.53;100.00;57128.34;10428322;28;20099;-81
2023/04/20 19:23:17;;;;;;;5.38;2.92;;;;;;;-147.53;100.00;57128.34;10437947;28;20045;-81
2023/04/20 19:28:22;;;;;;;6.40;2.80;;;;;;;-147.53;100.00;57128.34;10418618;28;20509;-81
2023/04/20 19:33:28;;;;;;;7.05;3.63;;;;;;;-147.53;100.00;57128.34;10421002;28;20068;-81
2023/04/20 19:38:31;;;;;;;8.27;3.30;;;;;;;-147.53;100.00;57128.34;10441444;28;20350;-79
2023/04/20 19:43:43;;;;;;;12.88;3.17;;;;;;;-147.53;100.00;57128.34;10434373;28;20144;-81
2023/04/20 19:48:51;;;;;;;6.68;3.33;;;;;;;-147.53;100.00;57128.34;10398758;28;20044;-81
2023/04/20 19:53:58;;;;;;;6.13;2.92;;;;;;;-147.53;100.00;57128.34;10430605;28;20045;-81
2023/04/20 19:59:00;;;;;;;6.00;3.50;;;;;;;-147.53;100.00;57128.34;10457626;28;20057;-80
2023/04/20 20:04:02;;;;;;;7.10;3.17;;;;;;;-147.53;100.00;57128.34;10440221;28;20045;-81
2023/04/20 20:09:05;;;;;;;7.05;3.42;;;;;;;-147.53;100.00;57128.34;10458869;28;20618;-81
2023/04/20 20:14:07;;;;;;;9.13;4.15;;;;;;;-147.53;100.00;57128.34;10437545;28;20049;-81
2023/04/20 20:19:09;;;;;;;7.32;3.72;;;;;;;-147.53;100.00;57128.34;10453460;28;20053;-81
2023/04/20 20:24:11;;;;;;;7.15;3.67;;;;;;;-147.53;100.00;57128.34;10419451;28;20148;-81
2023/04/20 20:29:13;;;;;;;5.78;3.25;;;;;;;-147.53;100.00;57128.34;10421680;28;20055;-81
2023/04/20 20:34:15;;;;;;;6.82;2.95;;;;;;;-147.53;100.00;57128.34;10458190;28;20072;-81
2023/04/20 20:39:16;;;;;;;7.97;3.10;;;;;;;-147.53;100.00;57128.34;10458788;28;20067;-81
2023/04/20 20:44:19;;;;;;;7.43;3.42;;;;;;;-147.53;100.00;57128.34;10424302;28;20077;-81
2023/04/20 20:49:21;;;;;;;8.18;3.05;;;;;;;-147.53;100.00;57128.34;10449506;28;20079;-81
2023/04/20 20:54:23;;;;;;;6.95;3.50;;;;;;;-147.53;100.00;57128.34;10438560;28;20045;-81
2023/04/20 20:59:25;;;;;;;7.75;3.60;;;;;;;-147.53;100.00;57128.34;10424099;28;20138;-81
2023/04/20 21:04:28;;;;;;;7.97;3.47;;;;;;;-147.53;100.00;57128.34;10457608;28;20044;-81
2023/04/20 21:09:30;;;;;;;6.22;3.20;;;;;;;-147.53;100.00;57128.34;10424833;28;20056;-81
2023/04/20 21:14:32;;;;;;;10.65;4.03;;;;;;;-147.53;100.00;57128.34;10460217;28;20052;-81
2023/04/20 21:19:34;;;;;;;6.97;3.53;;;;;;;-147.53;100.00;57128.34;10458550;28;20053;-81
2023/04/20 21:24:36;;;;;;;7.00;3.28;;;;;;;-147.53;100.00;57128.34;10456277;28;20045;-81
2023/04/20 21:29:37;;;;;;;7.68;3.78;;;;;;;-147.53;100.00;57128.34;10456650;28;20543;-81
2023/04/20 21:34:39;;;;;;;9.15;3.92;;;;;;;-147.53;100.00;57128.34;10457670;28;20037;-81
2023/04/20 21:39:42;;;;;;;10.45;4.57;;;;;;;-147.53;100.00;57128.34;10458341;28;20304;-81
2023/04/20 21:44:44;;;;;;;8.93;3.90;;;;;;;-147.53;100.00;57128.34;10459275;28;20049;-81
2023/04/20 21:49:46;;;;;;;8.48;3.63;;;;;;;-147.53;100.00;57128.34;10438235;28;20124;-81
2023/04/20 21:54:51;;;;;;;7.13;3.38;;;;;;;-147.53;100.00;57128.34;10423321;28;20131;-81
2023/04/20 21:59:56;;;;;;;8.90;4.25;;;;;;;-147.53;100.00;57128.34;10441948;28;20102;-81
2023/04/20 22:04:58;;;;;;;8.20;3.70;;;;;;;-147.53;100.00;57128.34;10452479;28;20044;-81
2023/04/20 22:10:00;;;;;;;8.43;3.22;;;;;;;-147.53;100.00;57128.34;10438063;28;20045;-82
2023/04/20 22:15:02;;;;;;;9.27;4.20;;;;;;;-147.53;100.00;57128.34;10455977;28;20053;-82
2023/04/20 22:20:06;;;;;;;7.35;3.53;;;;;;;-147.53;100.00;57128.34;10440984;28;20107;-82
2023/04/20 22:25:08;;;;;;;10.95;4.00;;;;;;;-147.53;100.00;57128.34;10440503;28;20049;-82
2023/04/20 22:30:10;;;;;;;12.43;3.97;;;;;;;-147.53;100.00;57128.34;10458975;28;20155;-82
2023/04/20 22:35:12;;;;;;;7.78;3.70;;;;;;;-147.53;100.00;57128.34;10457675;28;20064;-82
2023/04/20 22:40:14;;;;;;;7.80;3.67;;;;;;;-147.53;100.00;57128.34;10456928;28;20079;-82
2023/04/20 22:45:18;;;;;;;7.03;3.35;;;;;;;-147.53;100.00;57128.34;10439544;28;20115;-82